createdAt,value
2018-05-10T00:01:43.777Z,7.17
2018-05-10T00:04:47.090Z,6.13
2018-05-10T00:07:50.861Z,7.97
2018-05-10T00:10:54.215Z,10.43
2018-05-10T00:13:58.592Z,7.50
2018-05-10T00:17:02.026Z,9.90
2018-05-10T00:20:05.372Z,6.73
2018-05-10T00:23:08.718Z,8.83
2018-05-10T00:26:12.128Z,8.50
2018-05-10T00:29:15.500Z,9.70
2018-05-10T00:32:18.669Z,7.37
2018-05-10T00:35:23.346Z,8.30
2018-05-10T00:38:26.715Z,6.80
2018-05-10T00:41:30.052Z,10.47
2018-05-10T00:44:33.427Z,12.53
2018-05-10T00:47:36.740Z,10.80
2018-05-10T00:50:40.108Z,16.30
2018-05-10T00:53:43.410Z,13.47
2018-05-10T00:56:46.809Z,15.13
2018-05-10T00:59:50.492Z,10.27
2018-05-10T01:02:53.866Z,7.50
2018-05-10T01:05:57.230Z,11.30
2018-05-10T01:09:00.907Z,12.03
2018-05-10T01:12:04.793Z,12.70
2018-05-10T01:15:08.098Z,11.07
2018-05-10T01:18:11.418Z,9.90
2018-05-10T01:21:14.748Z,8.33
2018-05-10T01:24:18.161Z,7.47
2018-05-10T01:27:22.524Z,10.90
2018-05-10T01:30:25.923Z,5.67
2018-05-10T01:33:29.296Z,5.43
2018-05-10T01:36:32.518Z,6.43
2018-05-10T01:39:35.850Z,3.63
2018-05-10T01:42:39.253Z,3.90
2018-05-10T01:45:42.553Z,4.33
2018-05-10T01:48:45.742Z,5.07
2018-05-10T01:51:51.704Z,5.37
2018-05-10T01:54:55.029Z,8.63
2018-05-10T01:57:58.468Z,9.90
2018-05-10T02:01:01.800Z,7.17
2018-05-10T02:04:05.096Z,5.80
2018-05-10T02:07:08.405Z,7.27
2018-05-10T02:10:11.837Z,6.37
2018-05-10T02:13:15.167Z,7.90
2018-05-10T02:16:18.491Z,8.53
2018-05-10T02:19:22.609Z,9.03
2018-05-10T02:22:25.924Z,6.77
2018-05-10T02:25:29.292Z,6.67
2018-05-10T02:28:32.719Z,7.77
2018-05-10T02:31:36.020Z,8.47
2018-05-10T02:34:39.680Z,7.63
2018-05-10T02:37:43.063Z,6.93
2018-05-10T02:40:46.480Z,8.00
2018-05-10T02:43:49.869Z,9.30
2018-05-10T02:46:53.869Z,6.53
2018-05-10T02:49:57.284Z,9.47
2018-05-10T02:53:00.604Z,7.37
2018-05-10T02:56:04.083Z,6.77
2018-05-10T02:59:07.447Z,6.90
2018-05-10T03:02:10.788Z,8.33
2018-05-10T03:05:14.123Z,7.33
2018-05-10T03:08:17.457Z,8.73
2018-05-10T03:11:21.231Z,8.00
2018-05-10T03:14:25.563Z,8.50
2018-05-10T03:17:28.808Z,7.40
2018-05-10T03:20:32.166Z,8.43
2018-05-10T03:23:35.451Z,10.53
2018-05-10T03:26:39.781Z,8.87
2018-05-10T03:29:43.096Z,8.57
2018-05-10T03:32:46.428Z,8.87
2018-05-10T03:35:49.929Z,9.77
2018-05-10T03:38:53.221Z,8.63
2018-05-10T03:41:56.448Z,9.53
2018-05-10T03:44:59.852Z,8.77
2018-05-10T03:48:03.038Z,7.10
2018-05-10T03:51:08.380Z,9.63
2018-05-10T03:54:11.719Z,8.10
2018-05-10T03:57:15.003Z,8.40
2018-05-10T04:00:19.453Z,10.27
2018-05-10T04:03:31.668Z,11.23
2018-05-10T04:06:46.360Z,9.57
2018-05-10T04:11:17.920Z,9.00
2018-05-10T04:14:22.253Z,10.60
2018-05-10T04:17:26.583Z,7.42
2018-05-10T04:20:33.487Z,7.60
2018-05-10T04:23:36.897Z,15.43
2018-05-10T04:26:40.202Z,11.70
2018-05-10T04:29:43.559Z,10.27
2018-05-10T04:32:46.859Z,8.30
2018-05-10T04:35:50.904Z,8.53
2018-05-10T04:38:54.227Z,8.27
2018-05-10T04:41:57.596Z,8.17
2018-05-10T04:45:00.959Z,11.60
2018-05-10T04:48:04.449Z,12.17
2018-05-10T04:51:07.738Z,9.87
2018-05-10T04:54:11.043Z,9.47
2018-05-10T04:57:14.395Z,10.43
2018-05-10T05:00:17.674Z,12.20
2018-05-10T05:03:20.955Z,11.97
2018-05-10T05:06:24.396Z,13.33
2018-05-10T05:09:28.146Z,13.57
2018-05-10T05:12:31.488Z,15.20
2018-05-10T05:15:34.866Z,12.97
2018-05-10T05:18:38.240Z,15.67
2018-05-10T05:21:42.620Z,15.77
2018-05-10T05:24:46.890Z,13.37
2018-05-10T05:27:50.341Z,17.40
2018-05-10T05:30:53.730Z,14.00
2018-05-10T05:33:57.089Z,13.20
2018-05-10T05:37:00.732Z,15.90
2018-05-10T05:40:04.095Z,13.57
2018-05-10T05:43:08.465Z,15.93
2018-05-10T05:46:11.804Z,13.20
2018-05-10T05:49:15.134Z,14.17
2018-05-10T05:52:18.364Z,17.63
2018-05-10T05:55:21.770Z,13.27
2018-05-10T05:58:25.166Z,13.43
2018-05-10T06:01:29.645Z,13.43
2018-05-10T06:04:33.049Z,14.40
2018-05-10T06:07:36.304Z,16.67
2018-05-10T06:10:39.663Z,17.93
2018-05-10T06:13:43.074Z,16.50
2018-05-10T06:16:46.497Z,14.83
2018-05-10T06:19:49.835Z,12.43
2018-05-10T06:22:53.247Z,15.10
2018-05-10T06:25:56.624Z,15.27
2018-05-10T06:29:00.281Z,14.13
2018-05-10T06:32:03.677Z,13.73
2018-05-10T06:35:07.029Z,15.90
2018-05-10T06:38:10.356Z,15.43
2018-05-10T06:41:13.736Z,16.03
2018-05-10T06:44:17.226Z,14.67
2018-05-10T06:47:20.592Z,17.17
2018-05-10T06:50:23.924Z,14.83
2018-05-10T06:53:27.944Z,15.20
2018-05-10T06:56:32.292Z,16.83
2018-05-10T06:59:35.831Z,14.77
2018-05-10T07:02:39.319Z,20.17
2018-05-10T07:05:42.595Z,16.10
2018-05-10T07:08:46.047Z,15.63
2018-05-10T07:11:49.413Z,17.73
2018-05-10T07:14:52.811Z,17.70
2018-05-10T07:17:56.174Z,17.87
2018-05-10T07:20:59.580Z,17.87
2018-05-10T07:24:03.152Z,20.03
2018-05-10T07:27:06.582Z,22.43
2018-05-10T07:30:09.958Z,23.57
2018-05-10T07:33:13.351Z,22.47
2018-05-10T07:36:16.835Z,24.07
2018-05-10T07:39:20.183Z,22.07
2018-05-10T07:42:23.519Z,22.60
2018-05-10T07:45:26.809Z,21.63
2018-05-10T07:48:30.731Z,23.80
2018-05-10T07:51:33.966Z,24.47
2018-05-10T07:54:37.241Z,22.50
2018-05-10T07:57:40.715Z,25.90
2018-05-10T08:00:45.041Z,21.70
2018-05-10T08:03:48.282Z,21.57
2018-05-10T08:06:51.649Z,20.70
2018-05-10T08:09:55.221Z,21.00
2018-05-10T08:12:59.139Z,26.33
2018-05-10T08:16:02.499Z,21.83
2018-05-10T08:19:05.901Z,24.50
2018-05-10T08:22:09.294Z,22.67
2018-05-10T08:25:12.800Z,22.23
2018-05-10T08:28:16.140Z,23.17
2018-05-10T08:31:19.568Z,22.83
2018-05-10T08:34:22.943Z,19.10
2018-05-10T08:37:26.115Z,21.23
2018-05-10T08:40:30.187Z,21.77
2018-05-10T08:43:33.532Z,20.57
2018-05-10T08:46:36.994Z,16.67
2018-05-10T08:49:40.336Z,17.00
2018-05-10T08:52:43.759Z,16.23
2018-05-10T08:55:47.163Z,16.43
2018-05-10T08:58:50.568Z,15.33
2018-05-10T09:01:53.915Z,15.50
2018-05-10T09:04:57.466Z,16.43
2018-05-10T09:08:01.971Z,17.40
2018-05-10T09:11:05.571Z,17.73
2018-05-10T09:14:08.804Z,20.13
2018-05-10T09:17:12.000Z,18.30
2018-05-10T09:20:15.487Z,22.17
2018-05-10T09:23:18.816Z,22.40
2018-05-10T09:26:22.213Z,21.87
2018-05-10T09:29:25.490Z,20.57
2018-05-10T09:32:29.512Z,23.50
2018-05-10T09:35:32.688Z,25.97
2018-05-10T09:38:36.113Z,25.03
2018-05-10T09:41:39.928Z,25.50
2018-05-10T09:44:43.228Z,28.23
2018-05-10T09:47:47.485Z,28.37
2018-05-10T09:50:50.907Z,33.77
2018-05-10T09:53:54.331Z,33.47
2018-05-10T09:56:58.045Z,35.50
2018-05-10T10:00:01.457Z,34.53
2018-05-10T10:03:04.750Z,36.67
2018-05-10T10:06:08.088Z,36.77
2018-05-10T10:09:11.438Z,31.97
2018-05-10T10:12:14.739Z,32.27
2018-05-10T10:15:17.961Z,28.23
2018-05-10T10:18:21.283Z,26.27
2018-05-10T10:21:24.517Z,25.77
2018-05-10T10:24:27.750Z,24.20
2018-05-10T10:27:30.971Z,24.33
2018-05-10T10:30:34.259Z,26.37
2018-05-10T10:33:37.603Z,26.37
2018-05-10T10:36:41.751Z,24.03
2018-05-10T10:39:45.795Z,23.70
2018-05-10T10:42:48.980Z,22.93
2018-05-10T10:45:52.349Z,21.30
2018-05-10T10:48:55.817Z,24.33
2018-05-10T10:51:59.112Z,19.17
2018-05-10T10:55:02.347Z,18.17
2018-05-10T10:58:05.727Z,20.80
2018-05-10T11:01:09.119Z,19.27
2018-05-10T11:04:12.366Z,20.07
2018-05-10T11:07:16.080Z,19.43
2018-05-10T11:10:19.407Z,20.30
2018-05-10T11:13:22.844Z,22.20
2018-05-10T11:16:26.224Z,24.60
2018-05-10T11:19:29.599Z,23.77
2018-05-10T11:22:33.083Z,21.60
2018-05-10T11:25:36.399Z,25.73
2018-05-10T11:28:39.824Z,27.00
2018-05-10T11:31:43.582Z,26.03
2018-05-10T11:34:46.905Z,26.97
2018-05-10T11:37:50.580Z,25.17
2018-05-10T11:40:53.901Z,27.57
2018-05-10T11:43:57.386Z,25.83
2018-05-10T11:47:00.729Z,24.33
2018-05-10T11:50:04.173Z,26.30
2018-05-10T11:53:07.459Z,26.20
2018-05-10T11:56:10.817Z,24.63
2018-05-10T11:59:14.012Z,24.43
2018-05-10T12:02:17.318Z,25.10
2018-05-10T12:05:20.721Z,25.10
2018-05-10T12:08:24.405Z,22.40
2018-05-10T12:11:28.822Z,25.77
2018-05-10T12:14:32.942Z,27.10
2018-05-10T12:17:36.345Z,27.27
2018-05-10T12:20:39.744Z,24.07
2018-05-10T12:23:43.223Z,26.33
2018-05-10T12:26:46.622Z,24.13
2018-05-10T12:29:49.822Z,28.23
2018-05-10T12:32:53.168Z,30.23
2018-05-10T12:35:56.510Z,28.73
2018-05-10T12:39:05.097Z,28.77
2018-05-10T12:42:08.588Z,30.97
2018-05-10T12:45:11.910Z,24.23
2018-05-10T12:48:15.276Z,29.70
2018-05-10T12:51:19.548Z,26.17
2018-05-10T12:54:24.900Z,29.37
2018-05-10T12:57:28.281Z,30.87
2018-05-10T13:00:33.088Z,32.17
2018-05-10T13:03:36.533Z,27.67
2018-05-10T13:06:39.875Z,28.47
2018-05-10T13:09:44.204Z,27.37
2018-05-10T13:12:47.591Z,29.23
2018-05-10T13:15:50.884Z,27.10
2018-05-10T13:18:54.214Z,26.67
2018-05-10T13:21:57.599Z,24.53
2018-05-10T13:25:01.003Z,26.77
2018-05-10T13:28:05.478Z,25.03
2018-05-10T13:31:08.868Z,24.60
2018-05-10T13:34:12.331Z,30.47
2018-05-10T13:37:15.612Z,27.43
2018-05-10T13:40:19.106Z,23.03
2018-05-10T13:43:22.475Z,26.50
2018-05-10T13:46:25.812Z,22.67
2018-05-10T13:49:29.028Z,21.50
2018-05-10T13:52:34.510Z,19.10
2018-05-10T13:55:37.863Z,16.73
2018-05-10T13:58:41.267Z,17.90
2018-05-10T14:01:44.580Z,22.30
2018-05-10T14:04:47.983Z,18.70
2018-05-10T14:07:52.349Z,20.37
2018-05-10T14:10:55.643Z,20.07
2018-05-10T14:13:58.966Z,20.73
2018-05-10T14:17:03.478Z,21.13
2018-05-10T14:20:06.839Z,16.53
2018-05-10T14:23:10.341Z,16.00
2018-05-10T14:26:13.591Z,14.07
2018-05-10T14:29:17.022Z,11.40
2018-05-10T14:32:20.426Z,12.20
2018-05-10T14:35:23.792Z,9.83
2018-05-10T14:38:27.229Z,8.83
2018-05-10T14:41:30.607Z,8.47
2018-05-10T14:44:34.907Z,9.13
2018-05-10T14:47:38.342Z,6.33
2018-05-10T14:50:41.630Z,5.67
2018-05-10T14:53:45.077Z,5.23
2018-05-10T14:56:48.441Z,7.53
2018-05-10T14:59:51.726Z,3.90
2018-05-10T15:02:55.107Z,8.20
2018-05-10T15:05:58.392Z,4.73
2018-05-10T15:09:03.130Z,4.63
2018-05-10T15:12:06.580Z,6.40
2018-05-10T15:15:09.938Z,6.40
2018-05-10T15:18:13.178Z,5.90
2018-05-10T15:21:16.557Z,6.23
2018-05-10T15:24:19.865Z,7.63
2018-05-10T15:27:23.432Z,4.30
2018-05-10T15:30:26.832Z,6.60
2018-05-10T15:33:30.068Z,7.20
2018-05-10T15:36:33.960Z,7.33
2018-05-10T15:39:37.309Z,6.37
2018-05-10T15:42:40.501Z,7.97
2018-05-10T15:45:43.805Z,9.83
2018-05-10T15:48:47.284Z,6.07
2018-05-10T15:51:50.870Z,4.90
2018-05-10T15:54:54.175Z,11.33
2018-05-10T15:57:57.856Z,8.20
2018-05-10T16:01:01.244Z,6.37
2018-05-10T16:04:05.249Z,8.80
2018-05-10T16:07:08.671Z,6.80
2018-05-10T16:10:11.969Z,5.83
2018-05-10T16:13:15.424Z,6.90
2018-05-10T16:16:18.847Z,7.27
2018-05-10T16:19:22.179Z,9.67
2018-05-10T16:22:25.614Z,7.43
2018-05-10T16:25:28.980Z,9.03
2018-05-10T16:28:33.990Z,8.20
2018-05-10T16:31:37.722Z,8.03
2018-05-10T16:34:40.976Z,8.73
2018-05-10T16:37:44.295Z,8.50
2018-05-10T16:40:47.766Z,7.77
2018-05-10T16:43:51.107Z,6.43
2018-05-10T16:46:54.444Z,10.53
2018-05-10T16:49:57.834Z,10.73
2018-05-10T16:53:01.270Z,7.53
2018-05-10T16:56:05.855Z,7.23
2018-05-10T16:59:09.231Z,10.07
2018-05-10T17:02:12.644Z,7.73
2018-05-10T17:05:16.040Z,9.63
2018-05-10T17:08:19.393Z,9.67
2018-05-10T17:11:22.699Z,9.13
2018-05-10T17:14:26.059Z,9.53
2018-05-10T17:17:29.415Z,10.33
2018-05-10T17:20:32.751Z,9.20
2018-05-10T17:23:37.256Z,9.93
2018-05-10T17:26:40.561Z,9.33
2018-05-10T17:29:44.140Z,8.40
2018-05-10T17:32:47.452Z,10.80
2018-05-10T17:35:50.703Z,8.30
2018-05-10T17:38:54.188Z,8.83
2018-05-10T17:41:57.579Z,9.23
2018-05-10T17:45:01.145Z,6.97
2018-05-10T17:48:04.901Z,7.77
2018-05-10T17:51:08.179Z,10.13
2018-05-10T17:54:11.622Z,13.83
2018-05-10T17:57:14.968Z,11.00
2018-05-10T18:00:18.250Z,10.30
2018-05-10T18:03:21.480Z,8.33
2018-05-10T18:06:24.760Z,7.50
2018-05-10T18:09:28.138Z,6.87
2018-05-10T18:12:31.532Z,9.87
2018-05-10T18:15:34.860Z,9.67
2018-05-10T18:18:38.116Z,12.27
2018-05-10T18:21:43.513Z,8.23
2018-05-10T18:24:46.838Z,8.80
2018-05-10T18:27:50.259Z,9.00
2018-05-10T18:30:53.729Z,6.43
2018-05-10T18:33:57.112Z,9.47
2018-05-10T18:37:00.618Z,9.87
2018-05-10T18:40:04.036Z,12.70
2018-05-10T18:43:07.437Z,6.27
2018-05-10T18:46:11.275Z,10.13
2018-05-10T18:49:14.624Z,8.00
2018-05-10T18:52:19.091Z,9.43
2018-05-10T18:55:22.694Z,7.10
2018-05-10T18:58:25.977Z,9.90
2018-05-10T19:01:29.319Z,8.67
2018-05-10T19:04:32.539Z,9.27
2018-05-10T19:07:36.857Z,7.73
2018-05-10T19:10:40.309Z,8.07
2018-05-10T19:13:43.651Z,8.90
2018-05-10T19:16:46.874Z,8.90
2018-05-10T19:19:50.277Z,7.87
2018-05-10T19:22:53.654Z,8.33
2018-05-10T19:25:57.701Z,12.53
2018-05-10T19:29:01.219Z,11.87
2018-05-10T19:32:05.111Z,7.63
2018-05-10T19:35:08.491Z,8.00
2018-05-10T19:38:11.867Z,7.90
2018-05-10T19:41:15.238Z,8.00
2018-05-10T19:44:18.653Z,10.03
2018-05-10T19:47:22.057Z,6.17
2018-05-10T19:50:25.735Z,9.03
2018-05-10T19:53:29.080Z,7.33
2018-05-10T19:56:32.554Z,8.87
2018-05-10T19:59:35.884Z,7.50
2018-05-10T20:02:39.354Z,11.87
2018-05-10T20:05:45.845Z,6.63
2018-05-10T20:08:49.329Z,7.57
2018-05-10T20:11:52.653Z,7.07
2018-05-10T20:14:57.728Z,7.67
2018-05-10T20:18:01.069Z,6.23
2018-05-10T20:21:04.374Z,7.57
2018-05-10T20:24:08.790Z,6.87
2018-05-10T20:27:12.156Z,6.70
2018-05-10T20:30:15.453Z,8.03
2018-05-10T20:33:18.765Z,8.67
2018-05-10T20:36:24.209Z,6.97
2018-05-10T20:39:27.557Z,9.33
2018-05-10T20:42:30.896Z,10.37
2018-05-10T20:45:35.723Z,6.83
2018-05-10T20:48:39.213Z,9.77
2018-05-10T20:51:42.619Z,6.67
2018-05-10T20:54:46.224Z,8.37
2018-05-10T20:57:50.654Z,9.93
2018-05-10T21:00:55.070Z,8.50
2018-05-10T21:03:58.292Z,9.00
2018-05-10T21:07:01.790Z,7.33
2018-05-10T21:10:05.362Z,5.80
2018-05-10T21:13:12.177Z,7.97
2018-05-10T21:16:15.527Z,6.30
2018-05-10T21:19:19.041Z,8.83
2018-05-10T21:22:22.308Z,6.33
2018-05-10T21:25:25.753Z,7.33
2018-05-10T21:28:29.118Z,6.93
2018-05-10T21:31:33.610Z,6.40
2018-05-10T21:34:37.053Z,5.43
2018-05-10T21:37:40.352Z,7.97
2018-05-10T21:40:45.757Z,6.90
2018-05-10T21:43:49.122Z,6.70
2018-05-10T21:46:52.529Z,6.70
2018-05-10T21:50:03.943Z,8.57
2018-05-10T21:53:07.264Z,9.40
2018-05-10T21:56:10.545Z,6.93
2018-05-10T21:59:13.901Z,8.27
2018-05-10T22:02:17.661Z,7.17
2018-05-10T22:05:21.020Z,7.00
2018-05-10T22:08:24.424Z,9.77
2018-05-10T22:11:27.813Z,6.40
2018-05-10T22:14:31.218Z,7.70
2018-05-10T22:17:34.812Z,9.27
2018-05-10T22:20:38.562Z,7.57
2018-05-10T22:23:41.952Z,8.20
2018-05-10T22:26:45.340Z,6.43
2018-05-10T22:29:48.496Z,5.03
2018-05-10T22:32:51.964Z,6.00
2018-05-10T22:35:55.438Z,7.83
2018-05-10T22:38:58.816Z,6.70
2018-05-10T22:42:03.822Z,6.57
2018-05-10T22:45:07.481Z,7.33
2018-05-10T22:48:10.965Z,8.03
2018-05-10T22:51:14.388Z,5.70
2018-05-10T22:54:17.818Z,7.80
2018-05-10T22:57:21.222Z,7.27
2018-05-10T23:00:24.585Z,9.07
2018-05-10T23:03:28.071Z,6.17
2018-05-10T23:06:31.522Z,6.47
2018-05-10T23:09:35.958Z,7.80
2018-05-10T23:12:39.316Z,5.23
2018-05-10T23:15:42.735Z,6.07
2018-05-10T23:18:46.106Z,4.70
2018-05-10T23:21:49.505Z,7.40
2018-05-10T23:24:52.871Z,6.57
2018-05-10T23:27:56.329Z,4.97
2018-05-10T23:30:59.717Z,7.80
2018-05-10T23:34:03.603Z,8.03
2018-05-10T23:37:08.997Z,6.20
2018-05-10T23:40:12.314Z,5.73
2018-05-10T23:43:15.644Z,7.87
2018-05-10T23:46:18.955Z,6.40
2018-05-10T23:49:22.484Z,6.47
2018-05-10T23:52:25.978Z,8.53
2018-05-10T23:55:29.232Z,6.87
2018-05-10T23:58:33.599Z,4.63
